createdAt,value
2018-05-21T00:00:01.816Z,72.41
2018-05-21T00:02:29.465Z,72.58
2018-05-21T00:04:57.123Z,72.68
2018-05-21T00:07:24.787Z,72.77
2018-05-21T00:09:52.451Z,72.67
2018-05-21T00:12:20.114Z,72.73
2018-05-21T00:14:47.776Z,72.77
2018-05-21T00:17:15.378Z,72.79
2018-05-21T00:19:43.103Z,72.76
2018-05-21T00:22:10.705Z,72.88
2018-05-21T00:24:38.420Z,73.01
2018-05-21T00:27:06.031Z,73.10
2018-05-21T00:29:33.633Z,73.09
2018-05-21T00:32:01.256Z,72.94
2018-05-21T00:34:28.875Z,72.79
2018-05-21T00:36:56.533Z,72.66
2018-05-21T00:39:24.194Z,72.68
2018-05-21T00:41:51.857Z,72.82
2018-05-21T00:44:19.465Z,72.98
2018-05-21T00:46:47.090Z,72.97
2018-05-21T00:49:14.698Z,73.01
2018-05-21T00:51:42.324Z,72.91
2018-05-21T00:54:09.928Z,72.80
2018-05-21T00:56:37.558Z,72.90
2018-05-21T00:59:05.194Z,73.03
2018-05-21T01:01:32.823Z,72.79
2018-05-21T01:04:00.421Z,72.78
2018-05-21T01:06:28.046Z,72.86
2018-05-21T01:08:55.738Z,72.74
2018-05-21T01:11:23.369Z,72.70
2018-05-21T01:13:50.968Z,72.62
2018-05-21T01:16:18.622Z,72.64
2018-05-21T01:18:46.230Z,72.60
2018-05-21T01:21:13.836Z,72.48
2018-05-21T01:23:41.458Z,72.51
2018-05-21T01:26:09.054Z,72.49
2018-05-21T01:28:36.675Z,72.54
2018-05-21T01:31:04.274Z,72.67
2018-05-21T01:33:31.893Z,72.89
2018-05-21T01:35:59.619Z,72.90
2018-05-21T01:38:27.279Z,73.06
2018-05-21T01:40:54.941Z,73.68
2018-05-21T01:43:22.601Z,73.83
2018-05-21T01:45:50.202Z,73.67
2018-05-21T01:48:17.826Z,73.85
2018-05-21T01:50:45.499Z,73.96
2018-05-21T01:53:13.158Z,73.97
2018-05-21T01:55:40.823Z,74.13
2018-05-21T01:58:08.446Z,74.43
2018-05-21T02:00:36.143Z,74.49
2018-05-21T02:03:03.812Z,74.46
2018-05-21T02:05:31.426Z,74.56
2018-05-21T02:07:59.056Z,74.70
2018-05-21T02:10:26.661Z,74.56
2018-05-21T02:12:54.359Z,74.40
2018-05-21T02:15:21.971Z,74.59
2018-05-21T02:17:49.611Z,74.86
2018-05-21T02:20:17.219Z,74.97
2018-05-21T02:22:44.847Z,75.10
2018-05-21T02:25:12.457Z,75.21
2018-05-21T02:27:40.122Z,75.35
2018-05-21T02:30:07.714Z,75.41
2018-05-21T02:32:35.358Z,75.52
2018-05-21T02:35:02.974Z,75.52
2018-05-21T02:37:30.671Z,75.63
2018-05-21T02:39:58.303Z,75.79
2018-05-21T02:42:25.911Z,75.79
2018-05-21T02:44:53.551Z,75.96
2018-05-21T02:47:21.222Z,75.95
2018-05-21T02:49:48.927Z,76.20
2018-05-21T02:52:16.486Z,76.31
2018-05-21T02:54:44.119Z,76.06
2018-05-21T02:57:11.728Z,75.94
2018-05-21T02:59:39.426Z,75.84
2018-05-21T03:02:07.032Z,76.18
2018-05-21T03:04:34.754Z,76.37
2018-05-21T03:07:02.358Z,76.44
2018-05-21T03:09:30.079Z,76.47
2018-05-21T03:11:57.678Z,76.56
2018-05-21T03:14:25.401Z,76.50
2018-05-21T03:16:53.014Z,76.60
2018-05-21T03:19:20.635Z,76.66
2018-05-21T03:21:48.238Z,76.69
2018-05-21T03:24:15.959Z,76.66
2018-05-21T03:26:43.563Z,76.46
2018-05-21T03:29:11.186Z,76.42
2018-05-21T03:31:38.791Z,76.34
2018-05-21T03:34:06.428Z,76.33
2018-05-21T03:36:34.030Z,76.38
2018-05-21T03:39:02.302Z,76.37
2018-05-21T03:41:29.998Z,76.31
2018-05-21T03:43:57.634Z,76.28
2018-05-21T03:46:25.234Z,76.16
2018-05-21T03:48:52.892Z,76.21
2018-05-21T03:51:20.514Z,76.20
2018-05-21T03:53:48.120Z,76.04
2018-05-21T03:56:15.775Z,75.91
2018-05-21T03:58:55.327Z,75.84
2018-05-21T04:01:34.762Z,75.74
2018-05-21T04:04:02.395Z,75.41
2018-05-21T04:06:30.031Z,74.79
2018-05-21T04:08:57.644Z,74.14
2018-05-21T04:11:25.319Z,73.33
2018-05-21T04:13:52.935Z,72.46
2018-05-21T04:16:20.571Z,71.71
2018-05-21T04:18:48.283Z,70.60
2018-05-21T04:21:15.835Z,69.36
2018-05-21T04:23:43.511Z,68.04
2018-05-21T04:26:11.138Z,66.77
2018-05-21T04:28:38.759Z,66.43
2018-05-21T04:31:06.507Z,65.93
2018-05-21T04:33:34.116Z,65.85
2018-05-21T04:36:01.747Z,65.44
2018-05-21T04:38:29.351Z,65.05
2018-05-21T04:40:57.056Z,64.81
2018-05-21T04:43:24.659Z,64.74
2018-05-21T04:45:52.379Z,64.79
2018-05-21T04:48:20.015Z,64.98
2018-05-21T04:50:47.694Z,65.09
2018-05-21T04:53:15.332Z,65.13
2018-05-21T04:55:43.023Z,65.34
2018-05-21T04:58:10.686Z,65.32
2018-05-21T05:00:38.345Z,65.51
2018-05-21T05:03:05.979Z,65.49
2018-05-21T05:05:33.592Z,65.71
2018-05-21T05:08:01.215Z,65.78
2018-05-21T05:10:28.894Z,65.68
2018-05-21T05:12:56.532Z,65.61
2018-05-21T05:15:24.146Z,65.82
2018-05-21T05:17:51.786Z,66.09
2018-05-21T05:20:19.390Z,65.87
2018-05-21T05:22:47.026Z,65.93
2018-05-21T05:25:14.670Z,66.18
2018-05-21T05:27:42.293Z,66.56
2018-05-21T05:30:09.905Z,66.82
2018-05-21T05:32:37.550Z,67.15
2018-05-21T05:35:05.214Z,67.17
2018-05-21T05:37:32.878Z,67.08
2018-05-21T05:40:00.483Z,66.92
2018-05-21T05:42:28.202Z,66.91
2018-05-21T05:44:55.878Z,66.98
2018-05-21T05:47:23.517Z,66.89
2018-05-21T05:49:51.192Z,66.81
2018-05-21T05:52:18.863Z,66.62
2018-05-21T05:54:46.470Z,66.36
2018-05-21T05:57:14.117Z,66.51
2018-05-21T05:59:41.722Z,66.20
2018-05-21T06:02:09.326Z,66.21
2018-05-21T06:04:36.951Z,65.62
2018-05-21T06:07:04.622Z,65.15
2018-05-21T06:09:32.287Z,65.12
2018-05-21T06:11:59.916Z,64.66
2018-05-21T06:14:27.559Z,64.05
2018-05-21T06:16:55.174Z,62.96
2018-05-21T06:19:22.834Z,62.08
2018-05-21T06:21:50.510Z,61.67
2018-05-21T06:24:18.162Z,61.53
2018-05-21T06:26:45.767Z,60.97
2018-05-21T06:29:13.416Z,60.65
2018-05-21T06:31:41.027Z,60.39
2018-05-21T06:34:08.797Z,60.16
2018-05-21T06:36:36.371Z,60.14
2018-05-21T06:39:04.008Z,60.09
2018-05-21T06:41:31.622Z,60.32
2018-05-21T06:43:59.247Z,60.30
2018-05-21T06:46:26.850Z,60.41
2018-05-21T06:48:54.579Z,59.97
2018-05-21T06:51:22.190Z,59.94
2018-05-21T06:53:50.005Z,59.37
2018-05-21T06:56:17.618Z,59.42
2018-05-21T06:58:45.250Z,59.50
2018-05-21T07:01:12.859Z,59.03
2018-05-21T07:03:40.490Z,58.76
2018-05-21T07:06:08.119Z,58.86
2018-05-21T07:08:35.774Z,58.54
2018-05-21T07:11:03.541Z,58.04
2018-05-21T07:13:31.206Z,57.75
2018-05-21T07:15:58.871Z,57.29
2018-05-21T07:18:26.534Z,57.14
2018-05-21T07:20:54.191Z,57.05
2018-05-21T07:23:21.806Z,55.21
2018-05-21T07:25:49.443Z,55.34
2018-05-21T07:28:17.050Z,54.38
2018-05-21T07:30:44.678Z,53.91
2018-05-21T07:33:12.312Z,53.25
2018-05-21T07:35:39.948Z,52.40
2018-05-21T07:38:08.347Z,52.58
2018-05-21T07:40:36.010Z,52.24
2018-05-21T07:43:03.622Z,51.47
2018-05-21T07:45:31.246Z,51.32
2018-05-21T07:47:58.894Z,50.82
2018-05-21T07:50:26.532Z,50.29
2018-05-21T07:52:54.152Z,49.84
2018-05-21T07:55:21.781Z,49.50
2018-05-21T07:57:49.456Z,49.57
2018-05-21T08:00:17.086Z,49.31
2018-05-21T08:02:44.690Z,48.61
2018-05-21T08:05:12.343Z,48.13
2018-05-21T08:07:39.947Z,47.65
2018-05-21T08:10:07.604Z,47.19
2018-05-21T08:12:35.314Z,46.57
2018-05-21T08:15:02.918Z,46.32
2018-05-21T08:17:30.547Z,46.74
2018-05-21T08:19:58.198Z,46.30
2018-05-21T08:22:25.840Z,45.88
2018-05-21T08:24:55.157Z,45.64
2018-05-21T08:27:21.316Z,44.91
2018-05-21T08:29:48.959Z,44.82
2018-05-21T08:32:16.626Z,44.84
2018-05-21T08:34:44.234Z,43.52
2018-05-21T08:37:11.867Z,43.69
2018-05-21T08:39:39.485Z,43.63
2018-05-21T08:42:07.110Z,43.75
2018-05-21T08:44:34.715Z,43.81
2018-05-21T08:47:02.352Z,43.03
2018-05-21T08:49:29.958Z,43.54
2018-05-21T08:51:57.619Z,42.55
2018-05-21T08:54:25.269Z,42.97
2018-05-21T08:56:52.931Z,41.48
2018-05-21T08:59:20.599Z,41.19
2018-05-21T09:01:48.257Z,41.69
2018-05-21T09:04:15.868Z,40.92
2018-05-21T09:06:43.507Z,39.83
2018-05-21T09:09:11.152Z,39.77
2018-05-21T09:11:38.790Z,40.07
2018-05-21T09:14:06.403Z,40.41
2018-05-21T09:16:34.148Z,40.23
2018-05-21T09:19:01.794Z,40.00
2018-05-21T09:21:29.443Z,40.30
2018-05-21T09:23:57.058Z,40.67
2018-05-21T09:26:24.680Z,40.76
2018-05-21T09:28:52.306Z,39.19
2018-05-21T09:31:20.069Z,37.77
2018-05-21T09:33:47.780Z,36.96
2018-05-21T09:36:15.442Z,36.53
2018-05-21T09:38:43.074Z,36.33
2018-05-21T09:41:10.759Z,35.86
2018-05-21T09:43:38.396Z,35.14
2018-05-21T09:46:06.698Z,35.65
2018-05-21T09:48:34.408Z,35.92
2018-05-21T09:51:01.956Z,35.41
2018-05-21T09:53:29.588Z,34.89
2018-05-21T09:55:57.246Z,32.92
2018-05-21T09:58:24.882Z,33.20
2018-05-21T10:00:55.334Z,33.24
2018-05-21T10:03:22.962Z,32.21
2018-05-21T10:05:50.566Z,31.90
2018-05-21T10:08:18.204Z,32.04
2018-05-21T10:10:45.891Z,31.56
2018-05-21T10:13:13.647Z,31.99
2018-05-21T10:15:41.318Z,32.64
2018-05-21T10:18:08.947Z,32.87
2018-05-21T10:20:36.558Z,32.38
2018-05-21T10:23:04.193Z,32.01
2018-05-21T10:25:31.797Z,32.58
2018-05-21T10:27:59.433Z,32.43
2018-05-21T10:30:27.092Z,32.20
2018-05-21T10:32:54.724Z,32.14
2018-05-21T10:35:22.413Z,32.49
2018-05-21T10:37:50.063Z,32.43
2018-05-21T10:40:17.688Z,31.99
2018-05-21T10:42:45.307Z,30.88
2018-05-21T10:45:12.960Z,30.59
2018-05-21T10:47:40.575Z,30.04
2018-05-21T10:50:08.202Z,29.81
2018-05-21T10:52:35.806Z,30.09
2018-05-21T10:55:03.434Z,30.01
2018-05-21T10:57:31.073Z,29.72
2018-05-21T10:59:58.691Z,29.91
2018-05-21T11:02:26.390Z,29.43
2018-05-21T11:04:54.054Z,29.17
2018-05-21T11:07:21.667Z,29.35
2018-05-21T11:09:49.378Z,28.78
2018-05-21T11:12:17.104Z,28.99
2018-05-21T11:14:44.695Z,29.31
2018-05-21T11:17:12.313Z,28.95
2018-05-21T11:19:39.952Z,28.87
2018-05-21T11:22:07.559Z,28.52
2018-05-21T11:24:35.273Z,28.68
2018-05-21T11:27:02.848Z,28.84
2018-05-21T11:29:30.484Z,28.86
2018-05-21T11:31:58.095Z,28.97
2018-05-21T11:34:25.759Z,28.56
2018-05-21T11:36:53.362Z,28.49
2018-05-21T11:39:20.996Z,28.70
2018-05-21T11:41:48.611Z,28.61
2018-05-21T11:44:16.356Z,29.26
2018-05-21T11:46:44.006Z,28.98
2018-05-21T11:49:11.639Z,29.21
2018-05-21T11:51:39.296Z,29.39
2018-05-21T11:54:06.894Z,29.40
2018-05-21T11:56:34.527Z,29.22
2018-05-21T11:59:02.130Z,28.94
2018-05-21T12:01:29.761Z,28.65
2018-05-21T12:03:57.370Z,28.91
2018-05-21T12:06:25.111Z,29.12
2018-05-21T12:08:52.719Z,28.47
2018-05-21T12:11:20.354Z,28.73
2018-05-21T12:13:47.987Z,28.34
2018-05-21T12:16:15.642Z,28.74
2018-05-21T12:18:43.327Z,28.49
2018-05-21T12:21:10.958Z,28.42
2018-05-21T12:23:38.683Z,28.84
2018-05-21T12:26:06.360Z,29.11
2018-05-21T12:28:34.047Z,29.08
2018-05-21T12:31:01.790Z,28.71
2018-05-21T12:33:29.568Z,28.77
2018-05-21T12:35:57.210Z,29.14
2018-05-21T12:38:24.920Z,28.84
2018-05-21T12:40:52.554Z,28.66
2018-05-21T12:43:20.162Z,28.34
2018-05-21T12:45:47.814Z,28.44
2018-05-21T12:48:15.470Z,28.37
2018-05-21T12:50:43.134Z,27.91
2018-05-21T12:53:10.751Z,28.13
2018-05-21T12:55:38.386Z,28.55
2018-05-21T12:58:05.999Z,28.43
2018-05-21T13:00:33.640Z,28.31
2018-05-21T13:03:01.339Z,28.11
2018-05-21T13:05:28.991Z,29.29
2018-05-21T13:07:56.603Z,28.59
2018-05-21T13:10:24.230Z,28.07
2018-05-21T13:12:51.858Z,27.81
2018-05-21T13:15:19.608Z,27.50
2018-05-21T13:17:47.318Z,29.30
2018-05-21T13:20:14.930Z,30.15
2018-05-21T13:22:42.562Z,30.82
2018-05-21T13:25:10.404Z,30.83
2018-05-21T13:27:38.077Z,30.60
2018-05-21T13:30:05.720Z,30.54
2018-05-21T13:32:33.351Z,31.23
2018-05-21T13:35:01.064Z,31.06
2018-05-21T13:37:28.723Z,30.85
2018-05-21T13:39:56.339Z,31.37
2018-05-21T13:42:23.976Z,31.28
2018-05-21T13:44:51.611Z,31.18
2018-05-21T13:47:19.238Z,31.37
2018-05-21T13:49:46.935Z,31.64
2018-05-21T13:52:14.605Z,31.99
2018-05-21T13:54:42.255Z,31.95
2018-05-21T13:57:09.882Z,32.00
2018-05-21T13:59:37.487Z,31.79
2018-05-21T14:02:05.142Z,31.70
2018-05-21T14:04:32.806Z,31.90
2018-05-21T14:07:00.667Z,31.90
2018-05-21T14:09:28.534Z,32.15
2018-05-21T14:11:56.207Z,32.41
2018-05-21T14:14:23.871Z,32.21
2018-05-21T14:16:52.139Z,32.33
2018-05-21T14:19:19.802Z,31.98
2018-05-21T14:21:47.435Z,31.64
2018-05-21T14:24:15.072Z,32.27
2018-05-21T14:26:42.798Z,32.47
2018-05-21T14:29:10.757Z,32.52
2018-05-21T14:31:38.407Z,32.51
2018-05-21T14:34:06.040Z,31.91
2018-05-21T14:36:33.647Z,31.71
2018-05-21T14:39:01.275Z,31.77
2018-05-21T14:41:28.893Z,31.72
2018-05-21T14:43:56.643Z,31.72
2018-05-21T14:46:24.300Z,31.82
2018-05-21T14:48:51.956Z,31.90
2018-05-21T14:51:19.715Z,32.18
2018-05-21T14:53:47.387Z,32.36
2018-05-21T14:56:14.990Z,32.47
2018-05-21T14:58:42.628Z,32.50
2018-05-21T15:01:10.239Z,32.46
2018-05-21T15:03:37.929Z,32.70
2018-05-21T15:06:05.535Z,32.78
2018-05-21T15:08:33.168Z,33.17
2018-05-21T15:11:00.779Z,33.09
2018-05-21T15:13:28.416Z,33.56
2018-05-21T15:15:56.046Z,33.32
2018-05-21T15:18:23.682Z,33.64
2018-05-21T15:20:51.291Z,33.72
2018-05-21T15:23:18.924Z,33.67
2018-05-21T15:25:46.531Z,33.63
2018-05-21T15:28:14.251Z,33.31
2018-05-21T15:30:41.875Z,33.04
2018-05-21T15:33:09.575Z,33.18
2018-05-21T15:35:37.178Z,33.58
2018-05-21T15:38:04.782Z,33.38
2018-05-21T15:40:32.458Z,33.91
2018-05-21T15:43:00.063Z,33.88
2018-05-21T15:45:27.687Z,33.97
2018-05-21T15:47:55.351Z,34.29
2018-05-21T15:50:22.986Z,34.16
2018-05-21T15:52:50.591Z,33.75
2018-05-21T15:55:18.224Z,33.41
2018-05-21T15:57:45.830Z,33.40
2018-05-21T16:00:13.454Z,33.40
2018-05-21T16:02:41.057Z,33.53
2018-05-21T16:05:08.773Z,33.65
2018-05-21T16:07:36.387Z,33.62
2018-05-21T16:10:04.101Z,33.78
2018-05-21T16:12:31.706Z,33.72
2018-05-21T16:14:59.348Z,33.95
2018-05-21T16:17:26.984Z,33.88
2018-05-21T16:19:54.690Z,34.10
2018-05-21T16:22:22.294Z,33.91
2018-05-21T16:24:49.978Z,33.88
2018-05-21T16:27:17.736Z,33.55
2018-05-21T16:29:45.366Z,33.31
2018-05-21T16:32:12.967Z,33.07
2018-05-21T16:34:40.594Z,32.76
2018-05-21T16:37:08.212Z,32.17
2018-05-21T16:39:35.842Z,31.79
2018-05-21T16:42:03.507Z,31.44
2018-05-21T16:44:31.138Z,30.99
2018-05-21T16:46:58.834Z,30.96
2018-05-21T16:49:26.494Z,30.62
2018-05-21T16:51:54.098Z,30.67
2018-05-21T16:54:21.715Z,30.74
2018-05-21T16:56:49.382Z,30.62
2018-05-21T16:59:17.643Z,30.65
2018-05-21T17:01:45.274Z,30.43
2018-05-21T17:04:12.982Z,30.30
2018-05-21T17:06:40.621Z,30.29
2018-05-21T17:09:08.230Z,30.33
2018-05-21T17:11:35.865Z,30.52
2018-05-21T17:14:03.584Z,30.59
2018-05-21T17:16:31.303Z,30.83
2018-05-21T17:18:58.920Z,30.94
2018-05-21T17:21:26.562Z,31.01
2018-05-21T17:23:54.282Z,31.20
2018-05-21T17:26:21.946Z,31.20
2018-05-21T17:28:49.550Z,31.41
2018-05-21T17:31:17.230Z,31.62
2018-05-21T17:33:44.830Z,32.20
2018-05-21T17:36:12.475Z,32.67
2018-05-21T17:38:40.080Z,33.34
2018-05-21T17:41:07.713Z,33.98
2018-05-21T17:43:35.324Z,34.53
2018-05-21T17:46:03.047Z,35.21
2018-05-21T17:48:30.712Z,35.55
2018-05-21T17:50:58.651Z,36.04
2018-05-21T17:53:26.263Z,36.32
2018-05-21T17:55:54.004Z,36.66
2018-05-21T17:58:21.614Z,37.23
2018-05-21T18:00:49.239Z,37.68
2018-05-21T18:03:16.888Z,37.92
2018-05-21T18:05:44.551Z,38.20
2018-05-21T18:08:12.183Z,38.61
2018-05-21T18:10:39.796Z,39.01
2018-05-21T18:13:07.424Z,39.39
2018-05-21T18:15:35.100Z,39.64
2018-05-21T18:18:02.771Z,40.00
2018-05-21T18:20:30.728Z,40.24
2018-05-21T18:22:59.963Z,40.56
2018-05-21T18:25:27.577Z,40.93
2018-05-21T18:27:55.214Z,41.34
2018-05-21T18:30:22.827Z,41.53
2018-05-21T18:32:50.477Z,41.93
2018-05-21T18:35:18.082Z,42.20
2018-05-21T18:37:45.804Z,42.59
2018-05-21T18:40:13.467Z,42.79
2018-05-21T18:42:41.134Z,43.17
2018-05-21T18:45:08.765Z,43.25
2018-05-21T18:47:36.451Z,43.65
2018-05-21T18:50:04.055Z,43.93
2018-05-21T18:52:31.835Z,44.14
2018-05-21T18:54:59.544Z,44.34
2018-05-21T18:57:27.208Z,44.60
2018-05-21T18:59:54.820Z,44.87
2018-05-21T19:02:22.460Z,45.09
2018-05-21T19:04:50.197Z,45.36
2018-05-21T19:07:17.854Z,45.60
2018-05-21T19:09:45.519Z,45.81
2018-05-21T19:12:13.154Z,46.00
2018-05-21T19:14:40.845Z,46.29
2018-05-21T19:17:08.482Z,46.83
2018-05-21T19:19:36.162Z,47.08
2018-05-21T19:22:03.771Z,47.36
2018-05-21T19:24:31.406Z,47.68
2018-05-21T19:26:59.010Z,47.96
2018-05-21T19:29:26.647Z,48.25
2018-05-21T19:31:54.246Z,48.40
2018-05-21T19:34:21.892Z,48.57
2018-05-21T19:36:49.599Z,48.83
2018-05-21T19:39:17.226Z,49.16
2018-05-21T19:41:44.831Z,49.42
2018-05-21T19:44:12.479Z,49.64
2018-05-21T19:46:40.231Z,49.85
2018-05-21T19:49:07.874Z,50.18
2018-05-21T19:51:35.570Z,50.49
2018-05-21T19:54:03.239Z,50.82
2018-05-21T19:56:30.903Z,51.10
2018-05-21T19:58:58.542Z,51.22
2018-05-21T20:01:26.222Z,51.46
2018-05-21T20:03:53.883Z,51.63
2018-05-21T20:06:21.712Z,51.70
2018-05-21T20:08:49.423Z,51.81
2018-05-21T20:11:17.074Z,51.88
2018-05-21T20:13:44.727Z,51.99
2018-05-21T20:16:12.346Z,52.15
2018-05-21T20:18:39.979Z,52.29
2018-05-21T20:21:07.582Z,52.35
2018-05-21T20:23:35.210Z,52.59
2018-05-21T20:26:02.815Z,52.90
2018-05-21T20:28:30.516Z,53.20
2018-05-21T20:30:58.142Z,53.45
2018-05-21T20:33:25.766Z,53.64
2018-05-21T20:35:53.390Z,53.75
2018-05-21T20:38:20.990Z,54.10
2018-05-21T20:40:48.623Z,54.21
2018-05-21T20:43:16.278Z,54.40
2018-05-21T20:45:43.912Z,54.59
2018-05-21T20:48:11.607Z,54.89
2018-05-21T20:50:39.238Z,55.10
2018-05-21T20:53:06.853Z,55.61
2018-05-21T20:55:34.481Z,55.80
2018-05-21T20:58:02.154Z,55.82
2018-05-21T21:00:29.810Z,56.20
2018-05-21T21:02:57.414Z,56.54
2018-05-21T21:05:25.060Z,56.63
2018-05-21T21:07:52.695Z,56.85
2018-05-21T21:10:21.091Z,57.02
2018-05-21T21:12:48.742Z,57.31
2018-05-21T21:15:16.398Z,57.32
2018-05-21T21:17:44.002Z,57.64
2018-05-21T21:20:11.638Z,57.82
2018-05-21T21:22:39.251Z,58.12
2018-05-21T21:25:06.886Z,58.21
2018-05-21T21:27:34.491Z,58.23
2018-05-21T21:30:02.141Z,58.35
2018-05-21T21:32:29.780Z,58.42
2018-05-21T21:34:57.389Z,58.57
2018-05-21T21:37:25.155Z,58.81
2018-05-21T21:39:52.821Z,59.02
2018-05-21T21:42:20.458Z,59.20
2018-05-21T21:44:48.070Z,59.54
2018-05-21T21:47:15.707Z,59.62
2018-05-21T21:49:43.314Z,59.95
2018-05-21T21:52:11.030Z,60.27
2018-05-21T21:54:38.634Z,60.24
2018-05-21T21:57:06.372Z,60.41
2018-05-21T21:59:34.023Z,60.72
2018-05-21T22:02:01.679Z,60.97
2018-05-21T22:04:29.326Z,61.00
2018-05-21T22:06:57.010Z,61.19
2018-05-21T22:09:24.627Z,61.34
2018-05-21T22:11:52.255Z,61.43
2018-05-21T22:14:19.894Z,61.41
2018-05-21T22:16:47.518Z,61.66
2018-05-21T22:19:15.126Z,62.02
2018-05-21T22:21:42.766Z,62.09
2018-05-21T22:24:10.438Z,62.20
2018-05-21T22:26:38.071Z,62.55
2018-05-21T22:29:05.675Z,62.65
2018-05-21T22:31:33.306Z,62.69
2018-05-21T22:34:00.991Z,62.82
2018-05-21T22:36:28.618Z,62.93
2018-05-21T22:38:56.231Z,63.12
2018-05-21T22:41:23.867Z,63.35
2018-05-21T22:43:51.544Z,63.57
2018-05-21T22:46:19.154Z,63.77
2018-05-21T22:48:46.784Z,63.82
2018-05-21T22:51:14.451Z,63.94
2018-05-21T22:53:42.182Z,64.10
2018-05-21T22:56:09.792Z,64.29
2018-05-21T22:58:37.506Z,64.68
2018-05-21T23:01:05.114Z,64.90
2018-05-21T23:03:32.833Z,64.99
2018-05-21T23:06:00.435Z,65.00
2018-05-21T23:08:28.157Z,65.25
2018-05-21T23:10:55.767Z,65.48
2018-05-21T23:13:23.395Z,65.61
2018-05-21T23:15:51.005Z,65.73
2018-05-21T23:18:18.716Z,65.68
2018-05-21T23:20:46.329Z,65.57
2018-05-21T23:23:13.963Z,65.97
2018-05-21T23:25:41.594Z,66.26
2018-05-21T23:28:09.219Z,66.40
2018-05-21T23:30:36.927Z,66.69
2018-05-21T23:33:04.554Z,67.08
2018-05-21T23:35:32.171Z,67.37
2018-05-21T23:37:59.905Z,67.48
2018-05-21T23:40:27.524Z,67.53
2018-05-21T23:42:55.234Z,67.62
2018-05-21T23:45:22.848Z,67.72
2018-05-21T23:47:50.478Z,67.67
2018-05-21T23:50:18.112Z,67.72
2018-05-21T23:52:45.743Z,67.87
2018-05-21T23:55:13.442Z,67.90
2018-05-21T23:57:41.046Z,67.84
